Terminal Aerodrome Forecast
Issued by NWS

Home | Current Version | Previous Version | Text Only | Print | Product List | Glossary On
Versions: 1 2 3 4 5 6 7 8 9 10 11 12 13 14 15 16 17 18
000
FTUS45 KCYS 221731
TAFRWL
TAF
KRWL 221731Z 2218/2318 06010KT P6SM SCT060 BKN200
     FM221930 05012G22KT P6SM VCTS BKN080CB
     FM222100 01012G22KT P6SM -TSRA BKN070CB OVC100
      TEMPO 2221/2301 3SM TSRAGR OVC050CB
     FM230200 30008KT P6SM -RA OVC050
     FM230500 23007KT P6SM BKN100=

USA.gov is the U.S. government's official web portal to all federal, state and local government web resources and services.